createdAt,value
2023-05-17T00:00:52.055Z,19.89
2023-05-17T00:03:19.855Z,19.61
2023-05-17T00:05:47.383Z,19.47
2023-05-17T00:08:14.958Z,19.65
2023-05-17T00:10:43.398Z,19.62
2023-05-17T00:13:11.166Z,19.84
2023-05-17T00:15:38.598Z,19.89
2023-05-17T00:18:06.595Z,19.89
2023-05-17T00:20:34.835Z,19.95
2023-05-17T00:23:03.120Z,19.98
2023-05-17T00:25:31.073Z,19.99
2023-05-17T00:27:58.783Z,19.97
2023-05-17T00:30:26.273Z,19.99
2023-05-17T00:32:54.059Z,20.02
2023-05-17T00:35:21.840Z,19.99
2023-05-17T00:37:49.425Z,19.96
2023-05-17T00:40:17.409Z,19.95
2023-05-17T00:42:44.842Z,19.93
2023-05-17T00:45:12.339Z,19.88
2023-05-17T00:47:41.053Z,19.82
2023-05-17T00:50:08.982Z,19.84
2023-05-17T00:52:36.700Z,19.82
2023-05-17T00:55:04.733Z,19.82
2023-05-17T00:57:32.944Z,19.82
2023-05-17T01:00:02.023Z,19.80
2023-05-17T01:02:32.697Z,19.83
2023-05-17T01:05:00.596Z,19.81
2023-05-17T01:07:29.166Z,19.82
2023-05-17T01:09:57.348Z,19.80
2023-05-17T01:12:37.207Z,19.71
2023-05-17T01:15:13.973Z,19.69
2023-05-17T01:17:59.798Z,19.74
2023-05-17T01:20:44.590Z,19.74
2023-05-17T01:23:36.114Z,19.74
2023-05-17T01:26:09.502Z,19.74
2023-05-17T01:28:41.060Z,19.73
2023-05-17T01:31:09.612Z,19.75
2023-05-17T01:33:38.169Z,19.77
2023-05-17T01:36:06.277Z,19.80
2023-05-17T01:38:34.802Z,19.83
2023-05-17T01:41:09.607Z,19.76
2023-05-17T01:43:58.401Z,19.46
2023-05-17T01:46:32.910Z,19.52
2023-05-17T01:49:13.568Z,19.52
2023-05-17T01:51:48.965Z,19.55
2023-05-17T01:54:22.424Z,19.55
2023-05-17T01:56:56.626Z,19.56
2023-05-17T01:59:25.590Z,19.52
2023-05-17T02:01:57.469Z,19.53
2023-05-17T02:04:25.388Z,19.57
2023-05-17T02:06:53.404Z,19.44
2023-05-17T02:09:21.068Z,19.38
2023-05-17T02:11:49.274Z,19.35
2023-05-17T02:14:17.006Z,19.15
2023-05-17T02:16:44.551Z,19.09
2023-05-17T02:19:14.217Z,19.13
2023-05-17T02:21:41.996Z,19.06
2023-05-17T02:24:09.675Z,19.14
2023-05-17T02:26:37.392Z,19.15
2023-05-17T02:29:05.138Z,19.20
2023-05-17T02:31:32.654Z,19.19
2023-05-17T02:34:00.498Z,19.17
2023-05-17T02:36:28.449Z,19.06
2023-05-17T02:38:55.965Z,19.08
2023-05-17T02:41:23.445Z,19.11
2023-05-17T02:43:51.459Z,19.08
2023-05-17T02:46:18.922Z,19.11
2023-05-17T02:48:46.422Z,19.09
2023-05-17T02:51:14.306Z,18.97
2023-05-17T02:53:41.874Z,18.87
2023-05-17T02:56:09.589Z,18.76
2023-05-17T02:58:37.360Z,18.76
2023-05-17T03:01:05.704Z,18.91
2023-05-17T03:03:33.473Z,18.83
2023-05-17T03:06:02.637Z,18.75
2023-05-17T03:08:30.359Z,18.78
2023-05-17T03:10:58.496Z,18.80
2023-05-17T03:13:26.356Z,18.86
2023-05-17T03:15:53.854Z,18.73
2023-05-17T03:18:21.718Z,18.82
2023-05-17T03:20:49.675Z,18.81
2023-05-17T03:23:18.230Z,18.73
2023-05-17T03:25:46.340Z,18.78
2023-05-17T03:28:14.581Z,18.81
2023-05-17T03:30:42.138Z,18.88
2023-05-17T03:33:09.964Z,18.91
2023-05-17T03:35:37.889Z,18.95
2023-05-17T03:38:05.363Z,18.85
2023-05-17T03:40:33.345Z,18.81
2023-05-17T03:43:01.555Z,18.92
2023-05-17T03:45:29.782Z,18.81
2023-05-17T03:47:57.347Z,18.70
2023-05-17T03:50:26.003Z,18.88
2023-05-17T03:52:53.464Z,18.77
2023-05-17T03:55:20.958Z,18.88
2023-05-17T03:57:49.479Z,18.79
2023-05-17T04:00:21.828Z,18.77
2023-05-17T04:02:50.494Z,18.91
2023-05-17T04:05:19.615Z,18.95
2023-05-17T04:07:47.794Z,19.01
2023-05-17T04:10:15.317Z,19.01
2023-05-17T04:12:43.134Z,18.96
2023-05-17T04:15:11.139Z,19.01
2023-05-17T04:17:39.091Z,19.05
2023-05-17T04:20:07.371Z,19.06
2023-05-17T04:22:35.114Z,19.03
2023-05-17T04:25:02.633Z,19.13
2023-05-17T04:27:30.564Z,18.99
2023-05-17T04:29:58.420Z,19.05
2023-05-17T04:32:26.127Z,19.00
2023-05-17T04:34:54.075Z,18.91
2023-05-17T04:37:21.752Z,19.06
2023-05-17T04:39:49.998Z,18.96
2023-05-17T04:42:17.797Z,18.98
2023-05-17T04:44:45.943Z,18.78
2023-05-17T04:47:14.062Z,18.84
2023-05-17T04:49:41.912Z,18.72
2023-05-17T04:52:09.411Z,18.96
2023-05-17T04:54:36.930Z,19.11
2023-05-17T04:57:05.167Z,19.05
2023-05-17T04:59:34.501Z,19.03
2023-05-17T05:02:02.068Z,18.82
2023-05-17T05:04:30.151Z,18.90
2023-05-17T05:06:57.635Z,18.88
2023-05-17T05:09:25.091Z,19.07
2023-05-17T05:11:53.183Z,19.18
2023-05-17T05:14:21.042Z,19.20
2023-05-17T05:16:49.328Z,19.24
2023-05-17T05:19:17.447Z,19.31
2023-05-17T05:21:46.447Z,19.33
2023-05-17T05:24:14.187Z,19.18
2023-05-17T05:26:42.917Z,19.43
2023-05-17T05:29:10.633Z,19.28
2023-05-17T05:31:39.181Z,19.21
2023-05-17T05:34:07.649Z,19.42
2023-05-17T05:36:35.248Z,19.45
2023-05-17T05:39:02.837Z,19.34
2023-05-17T05:41:31.426Z,19.04
2023-05-17T05:43:59.456Z,19.17
2023-05-17T05:46:27.045Z,18.93
2023-05-17T05:48:55.005Z,19.35
2023-05-17T05:51:22.861Z,19.31
2023-05-17T05:53:51.486Z,19.03
2023-05-17T05:56:20.126Z,19.09
2023-05-17T05:58:47.599Z,19.23
2023-05-17T06:01:15.091Z,19.31
2023-05-17T06:03:42.812Z,19.45
2023-05-17T06:06:10.864Z,19.28
2023-05-17T06:08:38.563Z,19.36
2023-05-17T06:11:06.388Z,19.34
2023-05-17T06:13:33.863Z,19.27
2023-05-17T06:16:01.377Z,18.57
2023-05-17T06:18:29.275Z,19.16
2023-05-17T06:20:56.773Z,19.39
2023-05-17T06:23:24.516Z,19.20
2023-05-17T06:25:52.686Z,19.34
2023-05-17T06:28:20.210Z,18.96
2023-05-17T06:30:47.857Z,18.97
2023-05-17T06:33:15.940Z,18.91
2023-05-17T06:35:55.675Z,18.59
2023-05-17T06:38:25.377Z,18.61
2023-05-17T06:40:55.878Z,18.82
2023-05-17T06:43:23.389Z,18.82
2023-05-17T06:45:51.470Z,19.24
2023-05-17T06:48:19.232Z,18.87
2023-05-17T06:50:46.859Z,18.92
2023-05-17T06:53:14.626Z,18.87
2023-05-17T06:55:43.162Z,18.96
2023-05-17T06:58:10.743Z,19.24
2023-05-17T07:00:38.509Z,19.35
2023-05-17T07:03:06.101Z,19.16
2023-05-17T07:05:34.091Z,19.34
2023-05-17T07:08:02.165Z,19.37
2023-05-17T07:10:29.762Z,19.52
2023-05-17T07:12:57.242Z,19.16
2023-05-17T07:15:25.155Z,19.16
2023-05-17T07:17:52.648Z,19.09
2023-05-17T07:20:20.635Z,19.09
2023-05-17T07:22:48.584Z,19.38
2023-05-17T07:25:18.082Z,19.58
2023-05-17T07:27:47.916Z,19.38
2023-05-17T07:30:15.691Z,19.60
2023-05-17T07:32:43.275Z,19.66
2023-05-17T07:35:11.004Z,18.93
2023-05-17T07:37:38.734Z,19.41
2023-05-17T07:40:06.956Z,19.52
2023-05-17T07:42:34.526Z,19.57
2023-05-17T07:45:02.476Z,19.43
2023-05-17T07:47:30.857Z,19.50
2023-05-17T07:49:58.375Z,19.49
2023-05-17T07:52:26.147Z,19.50
2023-05-17T07:54:53.596Z,19.31
2023-05-17T07:57:21.309Z,19.63
2023-05-17T07:59:49.069Z,19.47
2023-05-17T08:02:16.602Z,19.34
2023-05-17T08:04:45.332Z,18.92
2023-05-17T08:07:12.812Z,19.18
2023-05-17T08:09:41.404Z,18.57
2023-05-17T08:12:09.194Z,18.58
2023-05-17T08:14:36.706Z,18.95
2023-05-17T08:17:04.457Z,19.19
2023-05-17T08:19:32.385Z,18.85
2023-05-17T08:21:59.934Z,18.78
2023-05-17T08:24:27.528Z,19.31
2023-05-17T08:26:55.295Z,19.12
2023-05-17T08:29:22.817Z,18.77
2023-05-17T08:31:51.691Z,18.47
2023-05-17T08:34:19.471Z,19.16
2023-05-17T08:36:47.628Z,19.28
2023-05-17T08:39:15.539Z,19.12
2023-05-17T08:41:43.339Z,19.38
2023-05-17T08:44:11.093Z,19.45
2023-05-17T08:46:40.012Z,19.47
2023-05-17T08:49:08.521Z,19.36
2023-05-17T08:51:36.551Z,19.44
2023-05-17T08:54:08.448Z,19.24
2023-05-17T08:56:39.530Z,19.21
2023-05-17T08:59:10.412Z,19.37
2023-05-17T09:01:43.495Z,19.37
2023-05-17T09:04:11.313Z,19.35
2023-05-17T09:06:39.104Z,19.08
2023-05-17T09:09:09.136Z,18.88
2023-05-17T09:11:36.649Z,18.98
2023-05-17T09:14:05.954Z,19.12
2023-05-17T09:16:37.546Z,18.98
2023-05-17T09:19:07.502Z,19.13
2023-05-17T09:21:37.313Z,19.45
2023-05-17T09:24:08.042Z,18.45
2023-05-17T09:26:39.243Z,19.04
2023-05-17T09:29:14.437Z,19.06
2023-05-17T09:31:42.684Z,19.10
2023-05-17T09:34:10.694Z,19.25
2023-05-17T09:36:42.217Z,18.71
2023-05-17T09:39:12.892Z,19.34
2023-05-17T09:41:43.625Z,19.35
2023-05-17T09:44:12.237Z,19.58
2023-05-17T09:46:45.519Z,19.41
2023-05-17T09:49:14.141Z,19.11
2023-05-17T09:51:43.126Z,19.13
2023-05-17T09:54:11.384Z,19.20
2023-05-17T09:56:39.448Z,19.33
2023-05-17T09:59:15.400Z,19.37
2023-05-17T10:01:45.331Z,19.03
2023-05-17T10:04:13.969Z,19.08
2023-05-17T10:09:14.279Z,19.00
2023-05-17T10:11:44.287Z,19.02
2023-05-17T10:14:24.997Z,18.99
2023-05-17T10:16:53.670Z,18.45
2023-05-17T10:19:21.754Z,18.46
2023-05-17T10:21:51.180Z,17.88
2023-05-17T10:24:21.583Z,18.19
2023-05-17T10:26:52.207Z,18.26
2023-05-17T10:29:21.376Z,17.86
2023-05-17T10:31:51.183Z,18.05
2023-05-17T10:34:20.089Z,17.91
2023-05-17T10:36:50.047Z,18.16
2023-05-17T10:39:18.088Z,17.44
2023-05-17T10:41:46.876Z,17.29
2023-05-17T10:44:16.408Z,18.03
2023-05-17T10:46:57.624Z,18.20
2023-05-17T10:49:29.865Z,18.21
2023-05-17T10:52:18.443Z,17.71
2023-05-17T10:54:49.445Z,18.25
2023-05-17T10:57:49.121Z,18.27
2023-05-17T11:00:22.021Z,17.81
2023-05-17T11:02:50.903Z,17.97
2023-05-17T11:05:26.168Z,18.02
2023-05-17T11:08:13.048Z,17.85
2023-05-17T11:11:10.498Z,17.60
2023-05-17T11:13:52.223Z,17.85
2023-05-17T11:16:28.671Z,17.88
2023-05-17T11:18:58.455Z,18.07
2023-05-17T11:21:28.513Z,17.77
2023-05-17T11:24:01.601Z,17.59
2023-05-17T11:26:34.629Z,17.46
2023-05-17T11:29:12.389Z,17.11
2023-05-17T11:31:44.967Z,17.45
2023-05-17T11:34:12.615Z,17.08
2023-05-17T11:36:51.876Z,16.99
2023-05-17T11:39:22.137Z,17.50
2023-05-17T11:41:51.697Z,17.24
2023-05-17T11:44:29.569Z,16.87
2023-05-17T11:47:02.930Z,17.66
2023-05-17T11:49:35.624Z,17.82
2023-05-17T11:52:05.696Z,18.22
2023-05-17T11:54:33.839Z,18.43
2023-05-17T11:57:03.883Z,17.38
2023-05-17T11:59:39.889Z,17.62
2023-05-17T12:02:07.735Z,16.93
2023-05-17T12:04:39.882Z,17.61
2023-05-17T12:07:11.216Z,16.72
2023-05-17T12:09:39.784Z,17.16
2023-05-17T12:12:08.644Z,17.33
2023-05-17T12:14:36.659Z,17.58
2023-05-17T12:17:08.780Z,17.58
2023-05-17T12:19:37.401Z,17.33
2023-05-17T12:22:12.494Z,17.63
2023-05-17T12:24:42.449Z,17.70
2023-05-17T12:27:10.669Z,17.61
2023-05-17T12:29:39.137Z,17.43
2023-05-17T12:32:08.753Z,18.05
2023-05-17T12:34:37.037Z,17.93
2023-05-17T12:37:10.192Z,18.35
2023-05-17T12:39:38.180Z,17.63
2023-05-17T12:42:06.134Z,17.82
2023-05-17T12:44:33.721Z,17.91
2023-05-17T12:47:02.951Z,17.87
2023-05-17T12:49:30.498Z,18.53
2023-05-17T12:52:04.354Z,18.09
2023-05-17T12:54:33.185Z,17.93
2023-05-17T12:57:12.572Z,17.90
2023-05-17T12:59:48.208Z,17.82
2023-05-17T13:02:16.266Z,18.07
2023-05-17T13:04:44.316Z,17.95
2023-05-17T13:07:12.450Z,17.99
2023-05-17T13:09:49.862Z,17.92
2023-05-17T13:12:22.866Z,17.80
2023-05-17T13:14:53.179Z,18.10
2023-05-17T13:17:35.147Z,17.82
2023-05-17T13:20:03.473Z,17.91
2023-05-17T13:22:31.484Z,18.01
2023-05-17T13:24:58.947Z,18.16
2023-05-17T13:27:26.372Z,17.63
2023-05-17T13:29:54.115Z,18.08
2023-05-17T13:32:21.818Z,18.22
2023-05-17T13:34:49.425Z,18.03
2023-05-17T13:37:17.283Z,17.76
2023-05-17T13:39:44.827Z,17.31
2023-05-17T13:42:12.932Z,17.77
2023-05-17T13:44:40.878Z,17.34
2023-05-17T13:47:08.439Z,17.49
2023-05-17T13:49:36.237Z,17.04
2023-05-17T13:52:04.139Z,17.29
2023-05-17T13:54:31.689Z,17.80
2023-05-17T13:56:59.339Z,17.41
2023-05-17T13:59:27.287Z,17.38
2023-05-17T14:01:54.782Z,17.35
2023-05-17T14:04:22.718Z,17.27
2023-05-17T14:06:54.793Z,17.56
2023-05-17T14:09:34.561Z,17.53
2023-05-17T14:12:02.182Z,17.68
2023-05-17T14:14:30.522Z,17.58
2023-05-17T14:16:58.075Z,17.90
2023-05-17T14:19:25.844Z,17.45
2023-05-17T14:21:53.757Z,17.50
2023-05-17T14:24:21.240Z,17.44
2023-05-17T14:26:48.781Z,17.40
2023-05-17T14:29:16.885Z,17.27
2023-05-17T14:31:44.350Z,17.18
2023-05-17T14:34:14.373Z,16.61
2023-05-17T14:36:42.220Z,16.60
2023-05-17T14:39:10.452Z,17.27
2023-05-17T14:41:39.364Z,16.90
2023-05-17T14:44:07.164Z,16.77
2023-05-17T14:46:35.005Z,16.96
2023-05-17T14:49:02.566Z,16.97
2023-05-17T14:51:30.556Z,16.90
2023-05-17T14:53:59.136Z,16.47
2023-05-17T14:56:27.772Z,16.63
2023-05-17T14:58:55.545Z,16.68
2023-05-17T15:01:23.323Z,16.16
2023-05-17T15:03:51.284Z,16.54
2023-05-17T15:06:24.781Z,16.19
2023-05-17T15:08:52.725Z,16.75
2023-05-17T15:11:21.864Z,16.01
2023-05-17T15:13:49.390Z,15.91
2023-05-17T15:16:16.892Z,15.99
2023-05-17T15:18:44.749Z,16.10
2023-05-17T15:21:12.286Z,16.04
2023-05-17T15:23:39.798Z,16.37
2023-05-17T15:26:07.709Z,16.11
2023-05-17T15:28:35.168Z,16.53
2023-05-17T15:31:06.276Z,16.07
2023-05-17T15:33:34.136Z,15.83
2023-05-17T15:36:01.764Z,15.83
2023-05-17T15:38:29.221Z,15.83
2023-05-17T15:41:07.524Z,15.44
2023-05-17T15:43:35.165Z,16.10
2023-05-17T15:46:02.877Z,15.61
2023-05-17T15:48:30.684Z,16.21
2023-05-17T15:50:58.646Z,16.23
2023-05-17T15:53:27.276Z,16.10
2023-05-17T15:55:55.142Z,16.12
2023-05-17T15:58:24.244Z,15.90
2023-05-17T16:00:51.967Z,15.89
2023-05-17T16:03:19.788Z,15.53
2023-05-17T16:05:47.508Z,16.18
2023-05-17T16:08:15.026Z,16.23
2023-05-17T16:10:42.864Z,16.34
2023-05-17T16:13:10.293Z,16.00
2023-05-17T16:15:37.865Z,16.28
2023-05-17T16:18:05.706Z,15.76
2023-05-17T16:20:33.874Z,15.42
2023-05-17T16:23:01.356Z,15.68
2023-05-17T16:25:29.337Z,15.80
2023-05-17T16:28:14.492Z,15.69
2023-05-17T16:30:42.308Z,15.33
2023-05-17T16:33:09.924Z,15.67
2023-05-17T16:35:37.486Z,15.50
2023-05-17T16:38:05.304Z,15.44
2023-05-17T16:40:33.057Z,15.17
2023-05-17T16:43:00.580Z,14.97
2023-05-17T16:45:28.437Z,15.06
2023-05-17T16:47:56.210Z,15.50
2023-05-17T16:50:23.802Z,15.30
2023-05-17T16:52:51.897Z,15.19
2023-05-17T16:55:19.444Z,15.45
2023-05-17T16:57:46.910Z,15.78
2023-05-17T17:00:15.077Z,15.33
2023-05-17T17:02:42.553Z,15.40
2023-05-17T17:05:10.501Z,15.30
2023-05-17T17:07:38.280Z,15.02
2023-05-17T17:10:06.359Z,14.93
2023-05-17T17:12:33.830Z,14.87
2023-05-17T17:15:02.272Z,14.87
2023-05-17T17:17:30.241Z,15.20
2023-05-17T17:19:57.806Z,15.10
2023-05-17T17:22:25.647Z,15.24
2023-05-17T17:24:53.483Z,14.90
2023-05-17T17:27:20.985Z,14.29
2023-05-17T17:29:48.778Z,14.95
2023-05-17T17:32:16.475Z,15.07
2023-05-17T17:34:44.073Z,14.41
2023-05-17T17:37:11.878Z,15.19
2023-05-17T17:39:39.509Z,14.89
2023-05-17T17:42:07.044Z,14.95
2023-05-17T17:44:35.058Z,14.66
2023-05-17T17:47:02.581Z,15.09
2023-05-17T17:49:30.313Z,14.95
2023-05-17T17:51:58.316Z,14.47
2023-05-17T17:54:26.040Z,14.97
2023-05-17T17:56:53.511Z,14.74
2023-05-17T17:59:21.398Z,15.38
2023-05-17T18:01:49.174Z,15.11
2023-05-17T18:04:16.940Z,14.75
2023-05-17T18:06:45.894Z,15.41
2023-05-17T18:09:13.386Z,14.91
2023-05-17T18:11:41.168Z,14.99
2023-05-17T18:14:08.946Z,15.11
2023-05-17T18:16:36.493Z,15.17
2023-05-17T18:19:04.686Z,15.00
2023-05-17T18:21:32.398Z,15.36
2023-05-17T18:24:00.455Z,15.63
2023-05-17T18:26:28.343Z,15.29
2023-05-17T18:28:55.968Z,15.50
2023-05-17T18:31:23.438Z,15.65
2023-05-17T18:33:51.314Z,15.29
2023-05-17T18:36:19.098Z,14.79
2023-05-17T18:38:46.773Z,15.26
2023-05-17T18:41:14.833Z,14.76
2023-05-17T18:43:42.371Z,15.14
2023-05-17T18:46:10.447Z,14.56
2023-05-17T18:48:39.148Z,14.94
2023-05-17T18:51:06.958Z,14.51
2023-05-17T18:53:36.167Z,14.76
2023-05-17T18:56:04.506Z,14.60
2023-05-17T18:58:32.153Z,14.79
2023-05-17T19:01:01.594Z,14.83
2023-05-17T19:03:29.913Z,14.63
2023-05-17T19:05:57.505Z,14.64
2023-05-17T19:08:25.422Z,14.83
2023-05-17T19:10:53.177Z,14.29
2023-05-17T19:13:20.705Z,14.62
2023-05-17T19:15:48.558Z,14.94
2023-05-17T19:18:16.540Z,14.85
2023-05-17T19:20:44.188Z,14.23
2023-05-17T19:23:12.181Z,14.50
2023-05-17T19:25:40.412Z,14.61
2023-05-17T19:28:11.798Z,15.05
2023-05-17T19:30:39.348Z,14.96
2023-05-17T19:33:07.466Z,15.17
2023-05-17T19:35:37.135Z,14.99
2023-05-17T19:38:04.859Z,15.03
2023-05-17T19:40:32.844Z,14.79
2023-05-17T19:43:02.121Z,14.67
2023-05-17T19:45:29.678Z,14.76
2023-05-17T19:47:57.936Z,14.66
2023-05-17T19:50:25.601Z,14.97
2023-05-17T19:53:01.018Z,14.64
2023-05-17T19:55:30.422Z,14.75
2023-05-17T19:57:58.094Z,14.38
2023-05-17T20:00:25.957Z,14.84
2023-05-17T20:02:54.341Z,14.97
2023-05-17T20:05:22.194Z,14.60
2023-05-17T20:07:49.693Z,15.22
2023-05-17T20:10:17.710Z,14.65
2023-05-17T20:12:45.240Z,13.88
2023-05-17T20:15:12.898Z,14.78
2023-05-17T20:17:40.796Z,14.87
2023-05-17T20:20:08.880Z,14.74
2023-05-17T20:22:37.782Z,15.28
2023-05-17T20:25:06.036Z,15.44
2023-05-17T20:27:33.540Z,14.23
2023-05-17T20:30:01.068Z,14.81
2023-05-17T20:32:29.249Z,14.76
2023-05-17T20:34:56.803Z,15.40
2023-05-17T20:37:24.463Z,14.75
2023-05-17T20:39:53.652Z,14.97
2023-05-17T20:42:22.427Z,14.99
2023-05-17T20:44:53.537Z,15.12
2023-05-17T20:47:22.633Z,14.56
2023-05-17T20:49:50.440Z,14.06
2023-05-17T20:52:27.779Z,14.28
2023-05-17T20:55:08.062Z,14.41
2023-05-17T20:57:35.758Z,14.86
2023-05-17T21:00:05.387Z,14.45
2023-05-17T21:02:33.634Z,14.50
2023-05-17T21:05:03.335Z,13.91
2023-05-17T21:07:31.605Z,13.94
2023-05-17T21:09:59.416Z,14.31
2023-05-17T21:12:26.897Z,14.44
2023-05-17T21:15:14.408Z,14.57
2023-05-17T21:17:42.388Z,14.47
2023-05-17T21:20:10.450Z,14.64
2023-05-17T21:22:38.084Z,14.51
2023-05-17T21:25:06.285Z,14.84
2023-05-17T21:27:34.164Z,14.75
2023-05-17T21:30:01.643Z,14.32
2023-05-17T21:32:30.006Z,14.67
2023-05-17T21:34:59.654Z,14.66
2023-05-17T21:37:27.311Z,14.72
2023-05-17T21:39:55.107Z,14.34
2023-05-17T21:42:22.633Z,14.51
2023-05-17T21:44:50.108Z,14.32
2023-05-17T21:47:17.819Z,14.53
2023-05-17T21:49:45.464Z,14.27
2023-05-17T21:52:12.970Z,14.76
2023-05-17T21:54:41.406Z,14.34
2023-05-17T21:57:08.913Z,13.81
2023-05-17T21:59:36.554Z,14.56
2023-05-17T22:02:04.468Z,14.51
2023-05-17T22:04:32.253Z,14.47
2023-05-17T22:06:59.795Z,14.20
2023-05-17T22:09:27.303Z,14.11
2023-05-17T22:11:58.731Z,13.12
2023-05-17T22:14:27.454Z,14.04
2023-05-17T22:16:56.715Z,13.91
2023-05-17T22:19:24.756Z,14.13
2023-05-17T22:21:52.306Z,14.03
2023-05-17T22:24:20.502Z,14.10
2023-05-17T22:26:47.970Z,13.71
2023-05-17T22:29:15.488Z,14.21
2023-05-17T22:31:43.285Z,13.66
2023-05-17T22:34:10.948Z,13.95
2023-05-17T22:36:42.287Z,14.08
2023-05-17T22:39:10.090Z,13.78
2023-05-17T22:41:37.667Z,13.93
2023-05-17T22:44:05.234Z,14.10
2023-05-17T22:46:33.367Z,14.01
2023-05-17T22:49:01.666Z,13.63
2023-05-17T22:51:30.169Z,13.68
2023-05-17T22:53:58.103Z,14.18
2023-05-17T22:56:26.235Z,13.80
2023-05-17T22:58:53.734Z,13.69
2023-05-17T23:01:21.513Z,14.30
2023-05-17T23:03:49.001Z,14.80
2023-05-17T23:06:16.706Z,14.30
2023-05-17T23:08:45.462Z,14.45
2023-05-17T23:11:13.878Z,13.96
2023-05-17T23:13:42.088Z,14.12
2023-05-17T23:16:10.742Z,13.92
2023-05-17T23:18:40.222Z,14.00
2023-05-17T23:21:08.293Z,14.08
2023-05-17T23:23:38.113Z,13.93
2023-05-17T23:26:06.058Z,13.79
2023-05-17T23:28:33.547Z,13.74
2023-05-17T23:31:02.383Z,14.29
2023-05-17T23:33:31.377Z,14.63
2023-05-17T23:35:58.945Z,14.48
2023-05-17T23:38:26.767Z,14.64
2023-05-17T23:40:54.432Z,14.04
2023-05-17T23:43:22.000Z,14.23
2023-05-17T23:45:49.741Z,13.74
2023-05-17T23:48:20.773Z,14.56
2023-05-17T23:50:48.321Z,13.99
2023-05-17T23:53:18.586Z,13.82
2023-05-17T23:55:46.221Z,13.48
2023-05-17T23:58:13.658Z,13.95
